sensor_id;sensor_type;location;lat;lon;timestamp;temperature;humidity
27747;DHT22;15138;51.012;4.692;2022-09-09T00:00:01;16.40;99.90
27747;DHT22;15138;51.012;4.692;2022-09-09T00:02:31;16.30;1.00
27747;DHT22;15138;51.012;4.692;2022-09-09T00:05:00;16.30;5.10
27747;DHT22;15138;51.012;4.692;2022-09-09T00:07:34;16.10;52.40
27747;DHT22;15138;51.012;4.692;2022-09-09T00:10:07;16.10;27.70
27747;DHT22;15138;51.012;4.692;2022-09-09T00:12:42;16.10;1.00
27747;DHT22;15138;51.012;4.692;2022-09-09T00:15:17;16.10;7.20
27747;DHT22;15138;51.012;4.692;2022-09-09T00:17:48;16.00;5.20
27747;DHT22;15138;51.012;4.692;2022-09-09T00:20:19;16.10;1.00
27747;DHT22;15138;51.012;4.692;2022-09-09T00:22:53;16.20;1.00
27747;DHT22;15138;51.012;4.692;2022-09-09T00:25:23;16.10;1.00
27747;DHT22;15138;51.012;4.692;2022-09-09T00:27:52;16.20;1.00
27747;DHT22;15138;51.012;4.692;2022-09-09T00:30:21;16.20;1.00
27747;DHT22;15138;51.012;4.692;2022-09-09T00:32:50;16.20;1.00
27747;DHT22;15138;51.012;4.692;2022-09-09T00:35:21;16.20;1.00
27747;DHT22;15138;51.012;4.692;2022-09-09T00:37:52;16.10;1.00
27747;DHT22;15138;51.012;4.692;2022-09-09T00:40:24;16.30;99.90
27747;DHT22;15138;51.012;4.692;2022-09-09T00:42:58;16.30;99.90
27747;DHT22;15138;51.012;4.692;2022-09-09T00:45:37;16.30;1.00
27747;DHT22;15138;51.012;4.692;2022-09-09T00:48:10;16.20;1.00
27747;DHT22;15138;51.012;4.692;2022-09-09T00:50:42;16.10;1.00
27747;DHT22;15138;51.012;4.692;2022-09-09T00:53:19;16.10;1.00
27747;DHT22;15138;51.012;4.692;2022-09-09T00:55:52;16.10;1.00
27747;DHT22;15138;51.012;4.692;2022-09-09T00:58:21;16.00;36.90
27747;DHT22;15138;51.012;4.692;2022-09-09T01:00:50;15.90;83.70
27747;DHT22;15138;51.012;4.692;2022-09-09T01:03:21;15.90;40.30
27747;DHT22;15138;51.012;4.692;2022-09-09T01:05:53;15.90;46.70
27747;DHT22;15138;51.012;4.692;2022-09-09T01:08:32;15.90;65.40
27747;DHT22;15138;51.012;4.692;2022-09-09T01:11:02;16.00;33.50
27747;DHT22;15138;51.012;4.692;2022-09-09T01:13:32;16.00;99.90
27747;DHT22;15138;51.012;4.692;2022-09-09T01:16:02;15.90;99.90
27747;DHT22;15138;51.012;4.692;2022-09-09T01:18:32;15.90;99.90
27747;DHT22;15138;51.012;4.692;2022-09-09T01:21:04;15.80;99.90
27747;DHT22;15138;51.012;4.692;2022-09-09T01:23:41;15.70;99.90
27747;DHT22;15138;51.012;4.692;2022-09-09T01:26:18;15.70;99.90
27747;DHT22;15138;51.012;4.692;2022-09-09T01:28:47;15.60;99.90
27747;DHT22;15138;51.012;4.692;2022-09-09T01:31:17;15.60;99.90
27747;DHT22;15138;51.012;4.692;2022-09-09T01:33:46;15.60;99.90
27747;DHT22;15138;51.012;4.692;2022-09-09T01:36:15;15.60;99.90
27747;DHT22;15138;51.012;4.692;2022-09-09T01:38:45;15.60;99.90
27747;DHT22;15138;51.012;4.692;2022-09-09T01:41:13;15.50;99.90
27747;DHT22;15138;51.012;4.692;2022-09-09T01:43:42;15.80;99.90
27747;DHT22;15138;51.012;4.692;2022-09-09T01:46:10;15.90;99.90
27747;DHT22;15138;51.012;4.692;2022-09-09T01:48:38;15.60;99.90
27747;DHT22;15138;51.012;4.692;2022-09-09T01:51:07;15.60;99.90
27747;DHT22;15138;51.012;4.692;2022-09-09T01:53:35;15.60;99.90
27747;DHT22;15138;51.012;4.692;2022-09-09T01:56:05;15.60;99.90
27747;DHT22;15138;51.012;4.692;2022-09-09T01:58:38;15.60;99.90
27747;DHT22;15138;51.012;4.692;2022-09-09T02:03:39;15.60;99.90
27747;DHT22;15138;51.012;4.692;2022-09-09T02:06:10;15.60;99.90
27747;DHT22;15138;51.012;4.692;2022-09-09T02:08:43;15.50;99.90
27747;DHT22;15138;51.012;4.692;2022-09-09T02:11:13;15.50;99.90
27747;DHT22;15138;51.012;4.692;2022-09-09T02:13:42;15.50;99.90
27747;DHT22;15138;51.012;4.692;2022-09-09T02:16:11;15.40;99.90
27747;DHT22;15138;51.012;4.692;2022-09-09T02:18:42;15.50;99.90
27747;DHT22;15138;51.012;4.692;2022-09-09T02:21:13;15.40;99.90
27747;DHT22;15138;51.012;4.692;2022-09-09T02:23:41;15.50;99.90
27747;DHT22;15138;51.012;4.692;2022-09-09T02:26:10;15.60;99.90
27747;DHT22;15138;51.012;4.692;2022-09-09T02:28:41;15.60;99.90
27747;DHT22;15138;51.012;4.692;2022-09-09T02:31:09;15.60;99.90
27747;DHT22;15138;51.012;4.692;2022-09-09T02:33:38;15.60;99.90
27747;DHT22;15138;51.012;4.692;2022-09-09T02:38:38;15.40;99.90
27747;DHT22;15138;51.012;4.692;2022-09-09T02:41:09;15.40;99.90
27747;DHT22;15138;51.012;4.692;2022-09-09T02:43:37;15.40;99.90
27747;DHT22;15138;51.012;4.692;2022-09-09T02:46:07;15.40;99.90
27747;DHT22;15138;51.012;4.692;2022-09-09T02:48:39;15.40;99.90
27747;DHT22;15138;51.012;4.692;2022-09-09T02:51:14;15.40;99.90
27747;DHT22;15138;51.012;4.692;2022-09-09T02:53:46;15.40;99.90
27747;DHT22;15138;51.012;4.692;2022-09-09T02:56:16;15.50;99.90
27747;DHT22;15138;51.012;4.692;2022-09-09T02:58:44;15.50;99.90
27747;DHT22;15138;51.012;4.692;2022-09-09T03:01:13;15.50;99.90
27747;DHT22;15138;51.012;4.692;2022-09-09T03:03:41;15.50;99.90
27747;DHT22;15138;51.012;4.692;2022-09-09T03:06:10;15.50;99.90
27747;DHT22;15138;51.012;4.692;2022-09-09T03:08:39;15.50;99.90
27747;DHT22;15138;51.012;4.692;2022-09-09T03:11:16;15.50;99.90
27747;DHT22;15138;51.012;4.692;2022-09-09T03:13:44;15.50;99.90
27747;DHT22;15138;51.012;4.692;2022-09-09T03:16:11;15.50;99.90
27747;DHT22;15138;51.012;4.692;2022-09-09T03:18:39;15.50;99.90
27747;DHT22;15138;51.012;4.692;2022-09-09T03:21:07;15.50;99.90
27747;DHT22;15138;51.012;4.692;2022-09-09T03:23:35;15.50;99.90
27747;DHT22;15138;51.012;4.692;2022-09-09T03:26:03;15.50;99.90
27747;DHT22;15138;51.012;4.692;2022-09-09T03:28:32;15.50;99.90
27747;DHT22;15138;51.012;4.692;2022-09-09T03:31:00;15.50;99.90
27747;DHT22;15138;51.012;4.692;2022-09-09T03:33:28;15.50;99.90
27747;DHT22;15138;51.012;4.692;2022-09-09T03:35:57;15.50;99.90
27747;DHT22;15138;51.012;4.692;2022-09-09T03:38:25;15.40;99.90
27747;DHT22;15138;51.012;4.692;2022-09-09T03:40:54;15.40;99.90
27747;DHT22;15138;51.012;4.692;2022-09-09T03:43:22;15.40;99.90
27747;DHT22;15138;51.012;4.692;2022-09-09T03:45:52;15.30;99.90
27747;DHT22;15138;51.012;4.692;2022-09-09T03:48:20;15.70;99.90
27747;DHT22;15138;51.012;4.692;2022-09-09T03:50:48;15.40;99.90
27747;DHT22;15138;51.012;4.692;2022-09-09T03:53:17;15.40;99.90
27747;DHT22;15138;51.012;4.692;2022-09-09T03:55:45;15.40;99.90
27747;DHT22;15138;51.012;4.692;2022-09-09T03:58:14;15.40;99.90
27747;DHT22;15138;51.012;4.692;2022-09-09T04:00:42;15.40;99.90
27747;DHT22;15138;51.012;4.692;2022-09-09T04:03:12;15.40;99.90
27747;DHT22;15138;51.012;4.692;2022-09-09T04:05:40;15.40;99.90
27747;DHT22;15138;51.012;4.692;2022-09-09T04:08:09;15.40;99.90
27747;DHT22;15138;51.012;4.692;2022-09-09T04:10:37;15.40;99.90
27747;DHT22;15138;51.012;4.692;2022-09-09T04:13:05;15.40;99.90
27747;DHT22;15138;51.012;4.692;2022-09-09T04:15:33;15.50;99.90
27747;DHT22;15138;51.012;4.692;2022-09-09T04:18:02;15.50;99.90
27747;DHT22;15138;51.012;4.692;2022-09-09T04:20:31;15.50;99.90
27747;DHT22;15138;51.012;4.692;2022-09-09T04:22:59;15.50;99.90
27747;DHT22;15138;51.012;4.692;2022-09-09T04:25:27;15.50;99.90
27747;DHT22;15138;51.012;4.692;2022-09-09T04:27:55;15.50;99.90
27747;DHT22;15138;51.012;4.692;2022-09-09T04:30:23;15.50;99.90
27747;DHT22;15138;51.012;4.692;2022-09-09T04:32:51;15.50;99.90
27747;DHT22;15138;51.012;4.692;2022-09-09T04:35:19;15.50;99.90
27747;DHT22;15138;51.012;4.692;2022-09-09T04:37:48;15.50;99.90
27747;DHT22;15138;51.012;4.692;2022-09-09T04:40:16;15.50;99.90
27747;DHT22;15138;51.012;4.692;2022-09-09T04:42:44;15.50;99.90
27747;DHT22;15138;51.012;4.692;2022-09-09T04:45:14;15.50;99.90
27747;DHT22;15138;51.012;4.692;2022-09-09T04:47:42;15.50;99.90
27747;DHT22;15138;51.012;4.692;2022-09-09T04:50:10;15.50;99.90
27747;DHT22;15138;51.012;4.692;2022-09-09T04:55:09;15.50;99.90
27747;DHT22;15138;51.012;4.692;2022-09-09T04:57:37;15.50;99.90
27747;DHT22;15138;51.012;4.692;2022-09-09T05:00:05;15.60;99.90
27747;DHT22;15138;51.012;4.692;2022-09-09T05:02:36;15.60;99.90
27747;DHT22;15138;51.012;4.692;2022-09-09T05:05:04;15.50;99.90
27747;DHT22;15138;51.012;4.692;2022-09-09T05:07:32;15.50;99.90
27747;DHT22;15138;51.012;4.692;2022-09-09T05:10:00;15.40;99.90
27747;DHT22;15138;51.012;4.692;2022-09-09T05:12:32;15.50;99.90
27747;DHT22;15138;51.012;4.692;2022-09-09T05:15:00;15.50;99.90
27747;DHT22;15138;51.012;4.692;2022-09-09T05:17:28;15.50;99.90
27747;DHT22;15138;51.012;4.692;2022-09-09T05:19:55;15.50;99.90
27747;DHT22;15138;51.012;4.692;2022-09-09T05:22:23;15.50;99.90
27747;DHT22;15138;51.012;4.692;2022-09-09T05:24:51;15.50;99.90
27747;DHT22;15138;51.012;4.692;2022-09-09T05:27:19;15.50;99.90
27747;DHT22;15138;51.012;4.692;2022-09-09T05:29:48;15.60;99.90
27747;DHT22;15138;51.012;4.692;2022-09-09T05:32:16;15.60;99.90
27747;DHT22;15138;51.012;4.692;2022-09-09T05:34:44;15.60;99.90
27747;DHT22;15138;51.012;4.692;2022-09-09T05:37:13;15.70;99.90
27747;DHT22;15138;51.012;4.692;2022-09-09T05:39:41;15.70;99.90
27747;DHT22;15138;51.012;4.692;2022-09-09T05:42:08;15.80;99.90
27747;DHT22;15138;51.012;4.692;2022-09-09T05:44:36;15.80;99.90
27747;DHT22;15138;51.012;4.692;2022-09-09T05:47:06;15.80;99.90
27747;DHT22;15138;51.012;4.692;2022-09-09T05:49:34;15.90;99.90
27747;DHT22;15138;51.012;4.692;2022-09-09T05:52:03;16.00;99.90
27747;DHT22;15138;51.012;4.692;2022-09-09T05:54:31;16.10;99.90
27747;DHT22;15138;51.012;4.692;2022-09-09T05:56:59;16.20;99.90
27747;DHT22;15138;51.012;4.692;2022-09-09T05:59:27;16.20;99.90
27747;DHT22;15138;51.012;4.692;2022-09-09T06:01:55;16.30;99.90
27747;DHT22;15138;51.012;4.692;2022-09-09T06:04:24;16.40;99.90
27747;DHT22;15138;51.012;4.692;2022-09-09T06:06:52;16.40;99.90
27747;DHT22;15138;51.012;4.692;2022-09-09T06:09:20;16.50;99.90
27747;DHT22;15138;51.012;4.692;2022-09-09T06:11:50;16.60;99.90
27747;DHT22;15138;51.012;4.692;2022-09-09T06:14:18;16.50;99.90
27747;DHT22;15138;51.012;4.692;2022-09-09T06:19:16;16.30;99.90
27747;DHT22;15138;51.012;4.692;2022-09-09T06:21:45;16.50;99.90
27747;DHT22;15138;51.012;4.692;2022-09-09T06:24:14;16.60;99.90
27747;DHT22;15138;51.012;4.692;2022-09-09T06:26:43;16.50;99.90
27747;DHT22;15138;51.012;4.692;2022-09-09T06:29:11;16.50;99.90
27747;DHT22;15138;51.012;4.692;2022-09-09T06:31:39;16.60;99.90
27747;DHT22;15138;51.012;4.692;2022-09-09T06:34:08;16.70;99.90
27747;DHT22;15138;51.012;4.692;2022-09-09T06:36:37;16.70;99.90
27747;DHT22;15138;51.012;4.692;2022-09-09T06:39:06;16.80;99.90
27747;DHT22;15138;51.012;4.692;2022-09-09T06:41:40;16.80;99.90
27747;DHT22;15138;51.012;4.692;2022-09-09T06:46:38;16.80;99.90
27747;DHT22;15138;51.012;4.692;2022-09-09T06:49:07;16.90;99.90
27747;DHT22;15138;51.012;4.692;2022-09-09T06:51:35;16.90;99.90
27747;DHT22;15138;51.012;4.692;2022-09-09T06:54:10;17.20;99.90
27747;DHT22;15138;51.012;4.692;2022-09-09T06:56:39;17.20;99.90
27747;DHT22;15138;51.012;4.692;2022-09-09T06:59:08;17.10;99.90
27747;DHT22;15138;51.012;4.692;2022-09-09T07:01:37;17.20;99.90
27747;DHT22;15138;51.012;4.692;2022-09-09T07:04:07;17.10;99.90
27747;DHT22;15138;51.012;4.692;2022-09-09T07:06:36;17.20;99.90
27747;DHT22;15138;51.012;4.692;2022-09-09T07:09:05;17.20;99.90
27747;DHT22;15138;51.012;4.692;2022-09-09T07:11:37;17.10;99.90
27747;DHT22;15138;51.012;4.692;2022-09-09T07:14:05;17.10;99.90
27747;DHT22;15138;51.012;4.692;2022-09-09T07:16:34;17.10;99.90
27747;DHT22;15138;51.012;4.692;2022-09-09T07:19:03;17.10;99.90
27747;DHT22;15138;51.012;4.692;2022-09-09T07:21:32;17.20;99.90
27747;DHT22;15138;51.012;4.692;2022-09-09T07:24:00;17.30;99.90
27747;DHT22;15138;51.012;4.692;2022-09-09T07:26:29;17.20;99.90
27747;DHT22;15138;51.012;4.692;2022-09-09T07:28:58;17.10;99.90
27747;DHT22;15138;51.012;4.692;2022-09-09T07:31:27;17.30;99.90
27747;DHT22;15138;51.012;4.692;2022-09-09T07:33:57;17.30;99.90
27747;DHT22;15138;51.012;4.692;2022-09-09T07:36:26;17.20;96.80
27747;DHT22;15138;51.012;4.692;2022-09-09T07:38:59;17.30;98.60
27747;DHT22;15138;51.012;4.692;2022-09-09T07:41:28;17.30;99.90
27747;DHT22;15138;51.012;4.692;2022-09-09T07:43:56;17.40;91.00
27747;DHT22;15138;51.012;4.692;2022-09-09T07:46:26;17.40;72.80
27747;DHT22;15138;51.012;4.692;2022-09-09T07:48:55;17.40;72.70
27747;DHT22;15138;51.012;4.692;2022-09-09T07:51:24;17.40;72.20
27747;DHT22;15138;51.012;4.692;2022-09-09T07:53:52;17.60;61.50
27747;DHT22;15138;51.012;4.692;2022-09-09T07:56:20;17.50;87.20
27747;DHT22;15138;51.012;4.692;2022-09-09T07:58:50;17.60;94.60
27747;DHT22;15138;51.012;4.692;2022-09-09T08:01:19;17.50;62.10
27747;DHT22;15138;51.012;4.692;2022-09-09T08:03:52;17.50;86.30
27747;DHT22;15138;51.012;4.692;2022-09-09T08:06:22;17.50;68.50
27747;DHT22;15138;51.012;4.692;2022-09-09T08:08:51;17.60;66.10
27747;DHT22;15138;51.012;4.692;2022-09-09T08:11:19;17.60;48.00
27747;DHT22;15138;51.012;4.692;2022-09-09T08:13:47;17.80;49.40
27747;DHT22;15138;51.012;4.692;2022-09-09T08:16:20;17.90;62.90
27747;DHT22;15138;51.012;4.692;2022-09-09T08:18:51;17.90;33.30
27747;DHT22;15138;51.012;4.692;2022-09-09T08:21:21;18.10;73.10
27747;DHT22;15138;51.012;4.692;2022-09-09T08:23:50;17.90;17.30
27747;DHT22;15138;51.012;4.692;2022-09-09T08:26:24;18.00;35.20
27747;DHT22;15138;51.012;4.692;2022-09-09T08:28:53;18.10;39.80
27747;DHT22;15138;51.012;4.692;2022-09-09T08:31:21;18.10;31.60
27747;DHT22;15138;51.012;4.692;2022-09-09T08:33:56;18.10;4.70
27747;DHT22;15138;51.012;4.692;2022-09-09T08:36:24;18.30;41.90
27747;DHT22;15138;51.012;4.692;2022-09-09T08:38:54;18.50;49.20
27747;DHT22;15138;51.012;4.692;2022-09-09T08:43:50;18.20;1.00
27747;DHT22;15138;51.012;4.692;2022-09-09T08:46:20;18.40;7.80
27747;DHT22;15138;51.012;4.692;2022-09-09T08:48:54;18.20;1.00
27747;DHT22;15138;51.012;4.692;2022-09-09T08:51:27;18.30;1.00
27747;DHT22;15138;51.012;4.692;2022-09-09T08:53:55;18.10;1.00
27747;DHT22;15138;51.012;4.692;2022-09-09T08:56:26;18.10;1.00
27747;DHT22;15138;51.012;4.692;2022-09-09T08:58:55;18.00;1.00
27747;DHT22;15138;51.012;4.692;2022-09-09T09:01:28;17.90;1.00
27747;DHT22;15138;51.012;4.692;2022-09-09T09:04:00;18.10;9.80
27747;DHT22;15138;51.012;4.692;2022-09-09T09:06:35;18.10;1.00
27747;DHT22;15138;51.012;4.692;2022-09-09T09:09:08;18.20;15.40
27747;DHT22;15138;51.012;4.692;2022-09-09T09:11:40;18.10;1.00
27747;DHT22;15138;51.012;4.692;2022-09-09T09:14:09;18.20;1.00
27747;DHT22;15138;51.012;4.692;2022-09-09T09:16:41;18.00;1.00
27747;DHT22;15138;51.012;4.692;2022-09-09T09:19:10;17.90;17.50
27747;DHT22;15138;51.012;4.692;2022-09-09T09:21:42;18.10;44.40
27747;DHT22;15138;51.012;4.692;2022-09-09T09:24:13;18.00;72.40
27747;DHT22;15138;51.012;4.692;2022-09-09T09:26:47;18.10;43.50
27747;DHT22;15138;51.012;4.692;2022-09-09T09:29:16;18.10;48.30
27747;DHT22;15138;51.012;4.692;2022-09-09T09:31:45;18.00;59.70
27747;DHT22;15138;51.012;4.692;2022-09-09T09:34:15;18.00;77.70
27747;DHT22;15138;51.012;4.692;2022-09-09T09:36:46;18.00;46.10
27747;DHT22;15138;51.012;4.692;2022-09-09T09:39:23;18.10;30.00
27747;DHT22;15138;51.012;4.692;2022-09-09T09:42:11;17.90;53.10
27747;DHT22;15138;51.012;4.692;2022-09-09T09:44:40;17.90;73.30
27747;DHT22;15138;51.012;4.692;2022-09-09T09:47:10;18.00;63.40
27747;DHT22;15138;51.012;4.692;2022-09-09T09:49:39;18.00;45.70
27747;DHT22;15138;51.012;4.692;2022-09-09T09:52:21;17.90;80.30
27747;DHT22;15138;51.012;4.692;2022-09-09T09:54:50;18.00;64.80
27747;DHT22;15138;51.012;4.692;2022-09-09T09:57:18;17.90;73.10
27747;DHT22;15138;51.012;4.692;2022-09-09T09:59:59;17.90;84.20
27747;DHT22;15138;51.012;4.692;2022-09-09T10:02:31;18.00;63.20
27747;DHT22;15138;51.012;4.692;2022-09-09T10:05:05;17.90;84.60
27747;DHT22;15138;51.012;4.692;2022-09-09T10:07:35;17.90;81.20
27747;DHT22;15138;51.012;4.692;2022-09-09T10:10:04;18.00;95.40
27747;DHT22;15138;51.012;4.692;2022-09-09T10:12:36;18.00;73.20
27747;DHT22;15138;51.012;4.692;2022-09-09T10:15:07;17.80;99.90
27747;DHT22;15138;51.012;4.692;2022-09-09T10:17:40;17.90;99.90
27747;DHT22;15138;51.012;4.692;2022-09-09T10:20:18;18.10;94.50
27747;DHT22;15138;51.012;4.692;2022-09-09T10:22:51;18.20;82.80
27747;DHT22;15138;51.012;4.692;2022-09-09T10:25:26;18.10;75.60
27747;DHT22;15138;51.012;4.692;2022-09-09T10:28:05;18.20;99.90
27747;DHT22;15138;51.012;4.692;2022-09-09T10:30:40;18.10;99.90
27747;DHT22;15138;51.012;4.692;2022-09-09T10:33:16;18.10;99.90
27747;DHT22;15138;51.012;4.692;2022-09-09T10:35:51;18.00;89.40
27747;DHT22;15138;51.012;4.692;2022-09-09T10:38:24;18.00;97.70
27747;DHT22;15138;51.012;4.692;2022-09-09T10:41:13;18.20;88.40
27747;DHT22;15138;51.012;4.692;2022-09-09T10:43:48;18.20;61.50
27747;DHT22;15138;51.012;4.692;2022-09-09T10:46:23;18.20;85.10
27747;DHT22;15138;51.012;4.692;2022-09-09T10:48:57;18.40;71.30
27747;DHT22;15138;51.012;4.692;2022-09-09T10:51:33;18.50;30.40
27747;DHT22;15138;51.012;4.692;2022-09-09T10:54:15;18.70;26.80
27747;DHT22;15138;51.012;4.692;2022-09-09T10:56:49;18.90;15.40
27747;DHT22;15138;51.012;4.692;2022-09-09T10:59:20;18.80;1.00
27747;DHT22;15138;51.012;4.692;2022-09-09T11:01:51;18.80;1.00
27747;DHT22;15138;51.012;4.692;2022-09-09T11:04:21;19.00;1.00
27747;DHT22;15138;51.012;4.692;2022-09-09T11:06:50;19.40;1.00
27747;DHT22;15138;51.012;4.692;2022-09-09T11:09:21;19.40;1.00
27747;DHT22;15138;51.012;4.692;2022-09-09T11:11:51;19.40;1.00
27747;DHT22;15138;51.012;4.692;2022-09-09T11:14:22;19.50;1.00
27747;DHT22;15138;51.012;4.692;2022-09-09T11:16:52;19.50;1.00
27747;DHT22;15138;51.012;4.692;2022-09-09T11:19:22;19.70;1.00
27747;DHT22;15138;51.012;4.692;2022-09-09T11:21:52;19.60;1.00
27747;DHT22;15138;51.012;4.692;2022-09-09T11:24:23;19.70;1.00
27747;DHT22;15138;51.012;4.692;2022-09-09T11:26:54;19.60;99.90
27747;DHT22;15138;51.012;4.692;2022-09-09T11:29:35;19.80;1.00
27747;DHT22;15138;51.012;4.692;2022-09-09T11:32:10;19.90;1.00
27747;DHT22;15138;51.012;4.692;2022-09-09T11:34:45;19.70;99.90
27747;DHT22;15138;51.012;4.692;2022-09-09T11:37:22;19.60;1.00
27747;DHT22;15138;51.012;4.692;2022-09-09T11:42:23;19.50;1.00
27747;DHT22;15138;51.012;4.692;2022-09-09T11:44:51;19.60;1.00
27747;DHT22;15138;51.012;4.692;2022-09-09T11:47:22;19.70;1.00
27747;DHT22;15138;51.012;4.692;2022-09-09T11:49:52;19.90;1.00
27747;DHT22;15138;51.012;4.692;2022-09-09T11:52:22;19.90;99.90
27747;DHT22;15138;51.012;4.692;2022-09-09T11:54:53;20.10;99.90
27747;DHT22;15138;51.012;4.692;2022-09-09T11:57:24;20.20;1.00
27747;DHT22;15138;51.012;4.692;2022-09-09T11:59:52;20.30;18.10
27747;DHT22;15138;51.012;4.692;2022-09-09T12:02:22;20.10;99.90
27747;DHT22;15138;51.012;4.692;2022-09-09T12:04:54;20.20;99.90
27747;DHT22;15138;51.012;4.692;2022-09-09T12:07:26;20.10;1.00
27747;DHT22;15138;51.012;4.692;2022-09-09T12:09:57;20.10;1.00
27747;DHT22;15138;51.012;4.692;2022-09-09T12:12:29;20.40;1.00
27747;DHT22;15138;51.012;4.692;2022-09-09T12:15:02;20.50;99.90
27747;DHT22;15138;51.012;4.692;2022-09-09T12:17:31;20.60;99.90
27747;DHT22;15138;51.012;4.692;2022-09-09T12:20:00;20.50;99.90
27747;DHT22;15138;51.012;4.692;2022-09-09T12:22:33;20.50;1.00
27747;DHT22;15138;51.012;4.692;2022-09-09T12:25:05;20.30;1.00
27747;DHT22;15138;51.012;4.692;2022-09-09T12:27:42;20.40;99.90
27747;DHT22;15138;51.012;4.692;2022-09-09T12:30:14;20.10;99.90
27747;DHT22;15138;51.012;4.692;2022-09-09T12:32:42;20.10;1.00
27747;DHT22;15138;51.012;4.692;2022-09-09T12:35:11;20.10;1.00
27747;DHT22;15138;51.012;4.692;2022-09-09T12:37:40;20.00;1.00
27747;DHT22;15138;51.012;4.692;2022-09-09T12:40:18;20.10;74.10
27747;DHT22;15138;51.012;4.692;2022-09-09T12:42:48;20.20;1.00
27747;DHT22;15138;51.012;4.692;2022-09-09T12:45:17;20.60;12.80
27747;DHT22;15138;51.012;4.692;2022-09-09T12:47:46;20.40;99.90
27747;DHT22;15138;51.012;4.692;2022-09-09T12:50:16;20.30;1.00
27747;DHT22;15138;51.012;4.692;2022-09-09T12:52:45;20.50;13.40
27747;DHT22;15138;51.012;4.692;2022-09-09T12:55:16;20.80;1.00
27747;DHT22;15138;51.012;4.692;2022-09-09T12:57:45;20.30;1.00
27747;DHT22;15138;51.012;4.692;2022-09-09T13:00:16;20.30;1.00
27747;DHT22;15138;51.012;4.692;2022-09-09T13:02:47;20.30;10.20
27747;DHT22;15138;51.012;4.692;2022-09-09T13:05:17;20.50;9.80
27747;DHT22;15138;51.012;4.692;2022-09-09T13:07:46;20.50;34.90
27747;DHT22;15138;51.012;4.692;2022-09-09T13:10:15;20.60;99.90
27747;DHT22;15138;51.012;4.692;2022-09-09T13:13:02;20.70;1.00
27747;DHT22;15138;51.012;4.692;2022-09-09T13:15:33;20.90;99.90
27747;DHT22;15138;51.012;4.692;2022-09-09T13:18:01;21.10;91.80
27747;DHT22;15138;51.012;4.692;2022-09-09T13:20:30;21.00;1.00
27747;DHT22;15138;51.012;4.692;2022-09-09T13:22:58;21.00;99.90
27747;DHT22;15138;51.012;4.692;2022-09-09T13:25:26;21.20;1.00
27747;DHT22;15138;51.012;4.692;2022-09-09T13:27:56;21.50;99.90
27747;DHT22;15138;51.012;4.692;2022-09-09T13:30:25;21.90;1.00
27747;DHT22;15138;51.012;4.692;2022-09-09T13:33:01;21.90;22.00
27747;DHT22;15138;51.012;4.692;2022-09-09T13:35:30;21.90;99.90
27747;DHT22;15138;51.012;4.692;2022-09-09T13:37:58;22.30;99.90
27747;DHT22;15138;51.012;4.692;2022-09-09T13:40:26;22.80;1.00
27747;DHT22;15138;51.012;4.692;2022-09-09T13:42:54;22.60;1.00
27747;DHT22;15138;51.012;4.692;2022-09-09T13:45:23;22.80;99.90
27747;DHT22;15138;51.012;4.692;2022-09-09T13:47:53;22.60;99.90
27747;DHT22;15138;51.012;4.692;2022-09-09T13:50:24;22.30;1.00
27747;DHT22;15138;51.012;4.692;2022-09-09T13:52:55;21.70;1.00
27747;DHT22;15138;51.012;4.692;2022-09-09T13:55:24;21.90;1.00
27747;DHT22;15138;51.012;4.692;2022-09-09T13:57:53;21.80;99.90
27747;DHT22;15138;51.012;4.692;2022-09-09T14:00:22;21.40;1.00
27747;DHT22;15138;51.012;4.692;2022-09-09T14:02:50;21.30;1.00
27747;DHT22;15138;51.012;4.692;2022-09-09T14:05:18;21.40;99.90
27747;DHT22;15138;51.012;4.692;2022-09-09T14:07:48;21.40;1.00
27747;DHT22;15138;51.012;4.692;2022-09-09T14:10:19;21.50;99.90
27747;DHT22;15138;51.012;4.692;2022-09-09T14:12:47;21.30;99.90
27747;DHT22;15138;51.012;4.692;2022-09-09T14:15:15;21.40;1.00
27747;DHT22;15138;51.012;4.692;2022-09-09T14:17:43;21.50;1.00
27747;DHT22;15138;51.012;4.692;2022-09-09T14:20:11;21.40;99.90
27747;DHT22;15138;51.012;4.692;2022-09-09T14:22:41;21.70;99.90
27747;DHT22;15138;51.012;4.692;2022-09-09T14:25:11;21.40;1.00
27747;DHT22;15138;51.012;4.692;2022-09-09T14:27:40;21.30;99.90
27747;DHT22;15138;51.012;4.692;2022-09-09T14:30:09;20.90;42.80
27747;DHT22;15138;51.012;4.692;2022-09-09T14:32:37;20.80;99.90
27747;DHT22;15138;51.012;4.692;2022-09-09T14:35:05;20.90;1.00
27747;DHT22;15138;51.012;4.692;2022-09-09T14:37:33;21.00;1.00
27747;DHT22;15138;51.012;4.692;2022-09-09T14:40:01;21.50;99.90
27747;DHT22;15138;51.012;4.692;2022-09-09T14:42:31;21.80;99.90
27747;DHT22;15138;51.012;4.692;2022-09-09T14:44:59;21.90;81.90
27747;DHT22;15138;51.012;4.692;2022-09-09T14:47:26;21.60;1.00
27747;DHT22;15138;51.012;4.692;2022-09-09T14:49:55;21.60;1.00
27747;DHT22;15138;51.012;4.692;2022-09-09T14:52:23;21.70;99.90
27747;DHT22;15138;51.012;4.692;2022-09-09T14:54:52;21.50;99.90
27747;DHT22;15138;51.012;4.692;2022-09-09T14:57:19;21.70;99.90
27747;DHT22;15138;51.012;4.692;2022-09-09T14:59:49;21.70;1.00
27747;DHT22;15138;51.012;4.692;2022-09-09T15:02:17;21.60;99.90
27747;DHT22;15138;51.012;4.692;2022-09-09T15:04:45;21.40;99.90
27747;DHT22;15138;51.012;4.692;2022-09-09T15:07:13;21.60;1.00
27747;DHT22;15138;51.012;4.692;2022-09-09T15:09:41;21.50;1.00
27747;DHT22;15138;51.012;4.692;2022-09-09T15:12:09;21.60;1.00
27747;DHT22;15138;51.012;4.692;2022-09-09T15:14:36;21.50;99.90
27747;DHT22;15138;51.012;4.692;2022-09-09T15:17:06;21.40;99.90
27747;DHT22;15138;51.012;4.692;2022-09-09T15:19:34;21.40;99.90
27747;DHT22;15138;51.012;4.692;2022-09-09T15:22:03;21.60;99.90
27747;DHT22;15138;51.012;4.692;2022-09-09T15:24:31;21.70;1.00
27747;DHT22;15138;51.012;4.692;2022-09-09T15:26:59;21.60;75.30
27747;DHT22;15138;51.012;4.692;2022-09-09T15:29:27;21.60;14.20
27747;DHT22;15138;51.012;4.692;2022-09-09T15:31:55;21.50;1.00
27747;DHT22;15138;51.012;4.692;2022-09-09T15:34:24;21.80;1.00
27747;DHT22;15138;51.012;4.692;2022-09-09T15:36:52;21.70;94.80
27747;DHT22;15138;51.012;4.692;2022-09-09T15:39:21;21.70;1.00
27747;DHT22;15138;51.012;4.692;2022-09-09T15:41:49;21.70;1.00
27747;DHT22;15138;51.012;4.692;2022-09-09T15:44:17;21.70;1.00
27747;DHT22;15138;51.012;4.692;2022-09-09T15:46:48;21.70;99.90
27747;DHT22;15138;51.012;4.692;2022-09-09T15:49:17;21.60;99.90
27747;DHT22;15138;51.012;4.692;2022-09-09T15:51:47;21.80;99.90
27747;DHT22;15138;51.012;4.692;2022-09-09T15:54:18;21.80;99.90
27747;DHT22;15138;51.012;4.692;2022-09-09T15:56:47;21.50;99.90
27747;DHT22;15138;51.012;4.692;2022-09-09T15:59:17;21.30;1.00
27747;DHT22;15138;51.012;4.692;2022-09-09T16:01:45;21.30;1.00
27747;DHT22;15138;51.012;4.692;2022-09-09T16:04:13;21.20;1.00
27747;DHT22;15138;51.012;4.692;2022-09-09T16:06:42;21.00;8.60
27747;DHT22;15138;51.012;4.692;2022-09-09T16:09:11;20.90;1.00